createdAt,value
2023-03-11T00:00:13.729Z,0.65
2023-03-11T00:02:41.167Z,0.56
2023-03-11T00:05:09.302Z,0.41
2023-03-11T00:07:37.827Z,0.29
2023-03-11T00:10:05.052Z,0.41
2023-03-11T00:12:31.940Z,0.52
2023-03-11T00:14:58.730Z,0.55
2023-03-11T00:17:25.619Z,0.54
2023-03-11T00:19:52.935Z,0.73
2023-03-11T00:22:19.870Z,0.86
2023-03-11T00:24:46.603Z,0.57
2023-03-11T00:27:13.386Z,0.53
2023-03-11T00:29:40.142Z,0.62
2023-03-11T00:32:07.847Z,0.51
2023-03-11T00:34:37.049Z,0.58
2023-03-11T00:37:03.983Z,0.53
2023-03-11T00:39:30.806Z,0.39
2023-03-11T00:41:57.777Z,0.53
2023-03-11T00:44:24.779Z,0.55
2023-03-11T00:46:51.864Z,0.40
2023-03-11T00:49:18.713Z,0.27
2023-03-11T00:51:45.615Z,0.21
2023-03-11T00:54:12.449Z,0.17
2023-03-11T00:56:41.724Z,0.43
2023-03-11T00:59:08.916Z,0.20
2023-03-11T01:01:36.001Z,0.15
2023-03-11T01:04:02.859Z,0.05
2023-03-11T01:06:39.198Z,0.12
2023-03-11T01:09:11.485Z,0.11
2023-03-11T01:11:38.345Z,0.20
2023-03-11T01:14:05.157Z,0.07
2023-03-11T01:16:32.036Z,-0.02
2023-03-11T01:18:58.902Z,0.02
2023-03-11T01:21:26.197Z,-0.05
2023-03-11T01:23:53.083Z,0.04
2023-03-11T01:26:20.110Z,0.09
2023-03-11T01:28:47.451Z,0.11
2023-03-11T01:31:14.369Z,0.16
2023-03-11T01:33:41.257Z,0.12
2023-03-11T01:36:08.572Z,0.12
2023-03-11T01:38:35.700Z,0.13
2023-03-11T01:41:02.647Z,0.15
2023-03-11T01:43:44.616Z,0.25
2023-03-11T01:46:30.650Z,0.25
2023-03-11T01:48:59.900Z,0.23
2023-03-11T01:51:36.896Z,0.09
2023-03-11T01:54:08.387Z,0.00
2023-03-11T01:56:35.753Z,0.03
2023-03-11T01:59:02.767Z,0.00
2023-03-11T02:01:29.925Z,0.04
2023-03-11T02:03:58.693Z,0.12
2023-03-11T02:06:26.641Z,0.13
2023-03-11T02:08:54.381Z,0.06
2023-03-11T02:11:27.857Z,-0.17
2023-03-11T02:13:58.286Z,0.06
2023-03-11T02:16:25.694Z,0.05
2023-03-11T02:18:52.704Z,0.24
2023-03-11T02:21:30.533Z,0.14
2023-03-11T02:24:24.477Z,0.42
2023-03-11T02:27:02.166Z,0.46
2023-03-11T02:29:30.299Z,0.22
2023-03-11T02:31:58.843Z,0.06
2023-03-11T02:34:30.428Z,-0.06
2023-03-11T02:36:59.329Z,-0.01
2023-03-11T02:39:46.849Z,0.19
2023-03-11T02:42:33.342Z,0.10
2023-03-11T02:45:09.617Z,0.09
2023-03-11T02:47:38.686Z,-0.20
2023-03-11T02:50:08.124Z,0.00
2023-03-11T02:52:36.078Z,-0.02
2023-03-11T02:55:04.399Z,-0.03
2023-03-11T02:57:31.313Z,-0.06
2023-03-11T03:00:00.080Z,0.10
2023-03-11T03:02:27.079Z,-0.13
2023-03-11T03:04:53.958Z,0.12
2023-03-11T03:07:20.907Z,-0.01
2023-03-11T03:09:47.769Z,-0.30
2023-03-11T03:12:14.536Z,-0.37
2023-03-11T03:14:41.481Z,-0.14
2023-03-11T03:17:10.081Z,0.00
2023-03-11T03:19:36.997Z,-0.12
2023-03-11T03:22:04.106Z,-0.26
2023-03-11T03:24:31.072Z,-0.22
2023-03-11T03:26:58.069Z,0.08
2023-03-11T03:29:25.041Z,-0.07
2023-03-11T03:31:52.408Z,0.07
2023-03-11T03:34:19.627Z,0.10
2023-03-11T03:36:46.601Z,0.21
2023-03-11T03:39:14.932Z,0.02
2023-03-11T03:41:42.468Z,0.12
2023-03-11T03:44:10.367Z,0.33
2023-03-11T03:46:38.625Z,0.34
2023-03-11T03:49:07.866Z,0.39
2023-03-11T03:51:35.351Z,0.45
2023-03-11T03:54:13.158Z,0.50
2023-03-11T03:56:39.992Z,0.53
2023-03-11T03:59:07.136Z,0.62
2023-03-11T04:01:39.259Z,0.45
2023-03-11T04:04:06.187Z,0.40
2023-03-11T04:06:33.187Z,0.41
2023-03-11T04:09:04.191Z,0.20
2023-03-11T04:11:34.194Z,0.14
2023-03-11T04:14:02.748Z,0.49
2023-03-11T04:16:31.525Z,0.11
2023-03-11T04:19:05.829Z,0.15
2023-03-11T04:21:33.880Z,0.35
2023-03-11T04:24:01.534Z,0.20
2023-03-11T04:26:33.023Z,0.21
2023-03-11T04:29:00.243Z,0.23
2023-03-11T04:31:29.763Z,0.04
2023-03-11T04:33:59.637Z,-0.06
2023-03-11T04:36:26.571Z,0.16
2023-03-11T04:38:53.622Z,-0.03
2023-03-11T04:41:21.945Z,-0.10
2023-03-11T04:43:49.163Z,-0.23
2023-03-11T04:46:16.388Z,-0.21
2023-03-11T04:48:43.307Z,-0.19
2023-03-11T04:51:10.230Z,-0.16
2023-03-11T04:53:37.612Z,-0.23
2023-03-11T04:56:04.950Z,-0.30
2023-03-11T04:58:31.908Z,-0.28
2023-03-11T05:00:58.928Z,-0.34
2023-03-11T05:03:26.237Z,-0.31
2023-03-11T05:05:56.741Z,-0.08
2023-03-11T05:08:24.956Z,-0.31
2023-03-11T05:10:53.168Z,-0.19
2023-03-11T05:13:21.551Z,-0.27
2023-03-11T05:15:49.771Z,-0.38
2023-03-11T05:18:17.198Z,-0.41
2023-03-11T05:20:44.666Z,-0.36
2023-03-11T05:23:12.662Z,-0.56
2023-03-11T05:25:40.182Z,-0.64
2023-03-11T05:28:08.176Z,-0.40
2023-03-11T05:30:40.463Z,-0.59
2023-03-11T05:33:08.807Z,-0.71
2023-03-11T05:35:36.605Z,-0.80
2023-03-11T05:38:03.892Z,-0.93
2023-03-11T05:40:31.035Z,-0.82
2023-03-11T05:42:57.962Z,-0.84
2023-03-11T05:45:26.714Z,-0.82
2023-03-11T05:47:55.598Z,-0.80
2023-03-11T05:50:22.572Z,-0.68
2023-03-11T05:52:50.604Z,-0.68
2023-03-11T05:55:18.015Z,-0.67
2023-03-11T05:57:46.054Z,-0.76
2023-03-11T06:00:13.380Z,-0.85
2023-03-11T06:02:41.272Z,-0.68
2023-03-11T06:05:13.684Z,-0.69
2023-03-11T06:07:41.993Z,-0.74
2023-03-11T06:10:10.023Z,-0.69
2023-03-11T06:12:38.730Z,-0.78
2023-03-11T06:15:25.894Z,-0.69
2023-03-11T06:17:53.581Z,-0.80
2023-03-11T06:20:20.574Z,-0.76
2023-03-11T06:22:50.847Z,-0.87
2023-03-11T06:25:19.463Z,-0.89
2023-03-11T06:27:52.611Z,-0.84
2023-03-11T06:30:21.063Z,-0.71
2023-03-11T06:32:56.259Z,-0.83
2023-03-11T06:35:23.471Z,-0.87
2023-03-11T06:37:50.362Z,-0.85
2023-03-11T06:40:18.138Z,-0.76
2023-03-11T06:42:48.187Z,-0.75
2023-03-11T06:45:15.615Z,-0.92
2023-03-11T06:47:43.976Z,-0.96
2023-03-11T06:50:11.219Z,-0.86
2023-03-11T06:52:38.004Z,-0.86
2023-03-11T06:55:07.855Z,-0.91
2023-03-11T06:57:35.905Z,-0.82
2023-03-11T07:00:12.368Z,-0.70
2023-03-11T07:02:42.348Z,-0.68
2023-03-11T07:05:09.785Z,-0.65
2023-03-11T07:07:36.659Z,-0.84
2023-03-11T07:10:04.815Z,-0.71
2023-03-11T07:12:31.620Z,-0.85
2023-03-11T07:14:59.457Z,-0.79
2023-03-11T07:17:28.295Z,-0.86
2023-03-11T07:19:55.543Z,-0.81
2023-03-11T07:22:22.394Z,-0.94
2023-03-11T07:24:49.670Z,-0.92
2023-03-11T07:27:17.524Z,-1.14
2023-03-11T07:29:44.769Z,-1.10
2023-03-11T07:32:11.512Z,-1.27
2023-03-11T07:34:38.739Z,-1.29
2023-03-11T07:37:05.745Z,-1.18
2023-03-11T07:39:32.559Z,-1.25
2023-03-11T07:41:59.311Z,-1.28
2023-03-11T07:44:34.313Z,-1.05
2023-03-11T07:47:05.235Z,-0.98
2023-03-11T07:49:32.695Z,-0.87
2023-03-11T07:51:59.616Z,-0.80
2023-03-11T07:54:26.584Z,-0.66
2023-03-11T07:56:53.438Z,-0.69
2023-03-11T07:59:20.229Z,-0.58
2023-03-11T08:01:47.406Z,-0.34
2023-03-11T08:04:16.690Z,-0.24
2023-03-11T08:06:46.358Z,-0.25
2023-03-11T08:09:13.760Z,-0.13
2023-03-11T08:11:40.959Z,-0.05
2023-03-11T08:14:07.858Z,-0.20
2023-03-11T08:16:35.023Z,-0.10
2023-03-11T08:19:02.215Z,-0.18
2023-03-11T08:21:32.180Z,-0.06
2023-03-11T08:24:01.035Z,-0.22
2023-03-11T08:26:28.271Z,-0.09
2023-03-11T08:28:55.791Z,-0.05
2023-03-11T08:31:31.239Z,0.02
2023-03-11T08:34:01.562Z,0.03
2023-03-11T08:36:29.327Z,-0.10
2023-03-11T08:38:56.100Z,0.08
2023-03-11T08:41:23.294Z,0.09
2023-03-11T08:43:52.360Z,0.06
2023-03-11T08:46:34.602Z,-0.08
2023-03-11T08:49:02.293Z,0.12
2023-03-11T08:51:31.410Z,0.12
2023-03-11T08:53:59.141Z,0.32
2023-03-11T08:56:26.292Z,0.29
2023-03-11T08:58:53.463Z,0.34
2023-03-11T09:01:20.465Z,0.46
2023-03-11T09:03:47.415Z,0.53
2023-03-11T09:06:16.237Z,0.49
2023-03-11T09:08:44.279Z,0.39
2023-03-11T09:11:13.679Z,0.65
2023-03-11T09:13:41.576Z,0.49
2023-03-11T09:16:14.681Z,0.55
2023-03-11T09:18:41.823Z,0.68
2023-03-11T09:21:09.700Z,0.77
2023-03-11T09:23:36.597Z,0.84
2023-03-11T09:26:04.069Z,0.85
2023-03-11T09:28:30.907Z,0.94
2023-03-11T09:30:58.175Z,0.75
2023-03-11T09:33:25.218Z,0.78
2023-03-11T09:35:52.268Z,0.65
2023-03-11T09:38:19.117Z,0.75
2023-03-11T09:40:52.713Z,0.77
2023-03-11T09:43:31.614Z,0.77
2023-03-11T09:46:21.193Z,0.90
2023-03-11T09:48:57.021Z,1.12
2023-03-11T09:51:31.284Z,1.19
2023-03-11T09:54:06.217Z,1.07
2023-03-11T09:56:35.650Z,1.16
2023-03-11T09:59:06.755Z,1.20
2023-03-11T10:01:42.748Z,1.00
2023-03-11T10:04:17.334Z,1.02
2023-03-11T10:06:45.975Z,0.98
2023-03-11T10:09:12.942Z,1.07
2023-03-11T10:12:06.959Z,1.26
2023-03-11T10:14:40.125Z,1.22
2023-03-11T10:17:28.011Z,1.28
2023-03-11T10:19:57.510Z,1.33
2023-03-11T10:22:33.576Z,1.31
2023-03-11T10:25:10.515Z,1.32
2023-03-11T10:27:49.709Z,1.28
2023-03-11T10:30:28.584Z,1.35
2023-03-11T10:33:10.966Z,1.46
2023-03-11T10:35:40.847Z,1.72
2023-03-11T10:38:15.700Z,1.69
2023-03-11T10:40:47.776Z,1.62
2023-03-11T10:44:01.109Z,1.69
2023-03-11T10:46:29.095Z,1.79
2023-03-11T10:48:56.178Z,1.68
2023-03-11T10:51:26.952Z,1.59
2023-03-11T10:53:58.301Z,1.69
2023-03-11T10:56:29.450Z,1.74
2023-03-11T10:58:58.024Z,1.70
2023-03-11T11:01:25.072Z,1.58
2023-03-11T11:03:55.952Z,1.54
2023-03-11T11:06:22.876Z,1.69
2023-03-11T11:08:49.739Z,1.60
2023-03-11T11:11:24.056Z,1.44
2023-03-11T11:13:58.858Z,1.76
2023-03-11T11:16:26.482Z,1.75
2023-03-11T11:19:08.934Z,1.65
2023-03-11T11:21:43.899Z,1.74
2023-03-11T11:24:29.415Z,1.80
2023-03-11T11:27:17.031Z,1.99
2023-03-11T11:29:44.255Z,1.72
2023-03-11T11:32:26.779Z,2.09
2023-03-11T11:35:03.543Z,2.01
2023-03-11T11:37:32.973Z,1.82
2023-03-11T11:40:15.846Z,1.94
2023-03-11T11:42:55.958Z,2.08
2023-03-11T11:45:32.443Z,2.36
2023-03-11T11:48:04.245Z,2.44
2023-03-11T11:50:44.022Z,2.48
2023-03-11T11:53:20.096Z,2.39
2023-03-11T11:55:52.677Z,2.77
2023-03-11T11:58:20.673Z,2.81
2023-03-11T12:00:56.688Z,2.72
2023-03-11T12:04:01.325Z,2.80
2023-03-11T12:06:40.455Z,2.94
2023-03-11T12:09:29.001Z,3.07
2023-03-11T12:12:02.221Z,2.73
2023-03-11T12:14:31.420Z,2.53
2023-03-11T12:17:03.857Z,2.72
2023-03-11T12:20:13.203Z,2.91
2023-03-11T12:22:57.648Z,3.14
2023-03-11T12:25:43.018Z,3.26
2023-03-11T12:28:27.467Z,3.27
2023-03-11T12:30:56.877Z,3.38
2023-03-11T12:33:55.437Z,3.66
2023-03-11T12:36:46.008Z,3.84
2023-03-11T12:39:33.873Z,3.95
2023-03-11T12:42:20.012Z,4.21
2023-03-11T12:44:48.099Z,4.28
2023-03-11T12:47:14.860Z,4.19
2023-03-11T12:49:46.535Z,4.24
2023-03-11T12:52:16.140Z,4.47
2023-03-11T12:54:46.564Z,4.60
2023-03-11T12:57:16.107Z,5.03
2023-03-11T13:00:01.801Z,5.94
2023-03-11T13:02:40.958Z,6.73
2023-03-11T13:05:23.048Z,7.46
2023-03-11T13:07:51.969Z,8.34
2023-03-11T13:10:20.557Z,8.56
2023-03-11T13:12:52.203Z,8.30
2023-03-11T13:15:19.980Z,8.65
2023-03-11T13:17:59.116Z,9.92
2023-03-11T13:20:44.450Z,10.44
2023-03-11T13:23:14.134Z,10.10
2023-03-11T13:26:12.992Z,10.94
2023-03-11T13:28:55.229Z,11.27
2023-03-11T13:31:39.393Z,11.08
2023-03-11T13:34:50.677Z,11.63
2023-03-11T13:37:26.257Z,11.04
2023-03-11T13:40:17.060Z,10.31
2023-03-11T13:42:46.018Z,10.66
2023-03-11T13:45:27.738Z,10.81
2023-03-11T13:47:59.685Z,10.64
2023-03-11T13:50:38.732Z,10.35
2023-03-11T13:53:15.952Z,10.31
2023-03-11T13:55:47.773Z,9.79
2023-03-11T13:58:17.205Z,10.19
2023-03-11T14:00:50.232Z,11.18
2023-03-11T14:03:22.124Z,12.02
2023-03-11T14:06:11.216Z,12.10
2023-03-11T14:08:39.186Z,12.71
2023-03-11T14:11:11.927Z,12.64
2023-03-11T14:13:50.288Z,13.31
2023-03-11T14:16:19.301Z,13.79
2023-03-11T14:18:48.663Z,13.84
2023-03-11T14:21:20.362Z,13.63
2023-03-11T14:23:52.685Z,12.79
2023-03-11T14:26:22.582Z,13.63
2023-03-11T14:28:58.990Z,13.70
2023-03-11T14:31:37.684Z,14.14
2023-03-11T14:34:15.056Z,14.43
2023-03-11T14:36:57.365Z,15.30
2023-03-11T14:39:33.137Z,15.18
2023-03-11T14:42:06.391Z,14.88
2023-03-11T14:44:36.067Z,14.29
2023-03-11T14:47:11.670Z,13.97
2023-03-11T14:49:39.248Z,13.79
2023-03-11T14:52:13.639Z,13.35
2023-03-11T14:54:41.709Z,13.37
2023-03-11T14:57:19.628Z,12.10
2023-03-11T14:59:49.648Z,10.66
2023-03-11T15:02:46.782Z,9.98
2023-03-11T15:05:26.941Z,8.92
2023-03-11T15:07:59.957Z,8.12
2023-03-11T15:10:26.884Z,8.20
2023-03-11T15:13:08.323Z,7.84
2023-03-11T15:15:35.212Z,7.28
2023-03-11T15:18:02.482Z,7.31
2023-03-11T15:20:32.248Z,6.92
2023-03-11T15:23:01.827Z,7.43
2023-03-11T15:25:31.691Z,7.58
2023-03-11T15:27:58.571Z,8.26
2023-03-11T15:30:28.450Z,9.50
2023-03-11T15:32:56.254Z,9.93
2023-03-11T15:35:25.779Z,11.07
2023-03-11T15:38:23.723Z,11.86
2023-03-11T15:41:01.885Z,12.34
2023-03-11T15:43:30.892Z,12.67
2023-03-11T15:45:59.603Z,13.15
2023-03-11T15:48:29.053Z,13.28
2023-03-11T15:50:57.966Z,12.36
2023-03-11T15:53:27.310Z,11.73
2023-03-11T15:55:55.123Z,11.99
2023-03-11T15:58:22.039Z,12.39
2023-03-11T16:00:54.230Z,10.71
2023-03-11T16:03:21.267Z,9.28
2023-03-11T16:05:48.353Z,9.01
2023-03-11T16:08:15.645Z,8.30
2023-03-11T16:10:43.036Z,7.66
2023-03-11T16:13:12.983Z,7.41
2023-03-11T16:15:40.322Z,6.44
2023-03-11T16:18:08.870Z,5.74
2023-03-11T16:20:50.792Z,5.78
2023-03-11T16:23:50.682Z,5.45
2023-03-11T16:26:18.376Z,5.15
2023-03-11T16:28:45.215Z,5.21
2023-03-11T16:31:12.904Z,4.97
2023-03-11T16:33:40.043Z,4.92
2023-03-11T16:36:07.315Z,4.72
2023-03-11T16:38:49.083Z,4.66
2023-03-11T16:41:17.468Z,4.63
2023-03-11T16:43:44.839Z,4.54
2023-03-11T16:46:11.994Z,4.48
2023-03-11T16:48:39.161Z,4.58
2023-03-11T16:51:06.441Z,4.45
2023-03-11T16:53:33.453Z,4.32
2023-03-11T16:56:00.337Z,3.99
2023-03-11T16:58:27.377Z,3.81
2023-03-11T17:00:54.528Z,3.73
2023-03-11T17:03:22.111Z,3.67
2023-03-11T17:05:49.467Z,3.56
2023-03-11T17:08:18.395Z,3.65
2023-03-11T17:10:47.183Z,3.47
2023-03-11T17:13:17.026Z,3.40
2023-03-11T17:15:46.062Z,3.17
2023-03-11T17:18:13.747Z,3.07
2023-03-11T17:20:43.761Z,3.02
2023-03-11T17:23:10.727Z,2.98
2023-03-11T17:25:40.581Z,3.14
2023-03-11T17:28:07.952Z,2.85
2023-03-11T17:30:37.114Z,2.87
2023-03-11T17:33:04.860Z,2.86
2023-03-11T17:35:31.839Z,2.96
2023-03-11T17:37:58.677Z,2.93
2023-03-11T17:40:27.035Z,3.01
2023-03-11T17:42:54.321Z,2.87
2023-03-11T17:45:21.210Z,2.89
2023-03-11T17:47:48.095Z,2.96
2023-03-11T17:50:15.213Z,2.93
2023-03-11T17:52:42.063Z,2.86
2023-03-11T17:55:09.577Z,2.76
2023-03-11T17:57:45.055Z,2.66
2023-03-11T18:00:15.109Z,2.66
2023-03-11T18:02:42.596Z,2.66
2023-03-11T18:05:09.818Z,2.59
2023-03-11T18:07:40.932Z,2.50
2023-03-11T18:10:08.736Z,2.40
2023-03-11T18:12:35.792Z,2.42
2023-03-11T18:15:06.261Z,2.29
2023-03-11T18:17:34.870Z,2.35
2023-03-11T18:20:02.439Z,2.35
2023-03-11T18:22:29.284Z,2.15
2023-03-11T18:24:56.109Z,2.17
2023-03-11T18:27:24.618Z,2.22
2023-03-11T18:29:51.708Z,2.31
2023-03-11T18:32:20.832Z,2.28
2023-03-11T18:34:51.466Z,2.26
2023-03-11T18:37:18.508Z,2.21
2023-03-11T18:39:45.407Z,2.28
2023-03-11T18:42:14.101Z,2.24
2023-03-11T18:44:41.892Z,2.33
2023-03-11T18:47:08.842Z,2.32
2023-03-11T18:49:35.712Z,2.24
2023-03-11T18:52:02.624Z,2.32
2023-03-11T18:54:29.594Z,2.33
2023-03-11T18:56:56.435Z,2.31
2023-03-11T18:59:23.271Z,2.28
2023-03-11T19:01:51.112Z,2.15
2023-03-11T19:04:18.029Z,2.21
2023-03-11T19:06:44.952Z,2.12
2023-03-11T19:09:13.067Z,2.13
2023-03-11T19:11:39.892Z,2.03
2023-03-11T19:14:06.776Z,2.19
2023-03-11T19:16:33.890Z,2.15
2023-03-11T19:19:01.558Z,2.03
2023-03-11T19:21:28.416Z,2.02
2023-03-11T19:23:57.369Z,2.13
2023-03-11T19:26:41.457Z,2.00
2023-03-11T19:29:11.093Z,1.97
2023-03-11T19:31:37.998Z,2.07
2023-03-11T19:34:04.866Z,2.03
2023-03-11T19:36:31.883Z,2.13
2023-03-11T19:38:58.716Z,2.17
2023-03-11T19:41:25.540Z,2.14
2023-03-11T19:43:52.458Z,2.12
2023-03-11T19:46:21.950Z,2.17
2023-03-11T19:48:49.067Z,2.19
2023-03-11T19:51:17.444Z,2.28
2023-03-11T19:53:44.832Z,2.21
2023-03-11T19:56:12.013Z,2.14
2023-03-11T19:58:38.996Z,2.21
2023-03-11T20:01:05.878Z,2.16
2023-03-11T20:03:32.931Z,2.23
2023-03-11T20:06:06.967Z,2.22
2023-03-11T20:08:37.876Z,2.22
2023-03-11T20:11:06.066Z,2.25
2023-03-11T20:13:34.442Z,2.20
2023-03-11T20:16:09.399Z,2.31
2023-03-11T20:18:36.600Z,2.49
2023-03-11T20:21:08.494Z,2.35
2023-03-11T20:23:35.817Z,2.45
2023-03-11T20:26:12.517Z,2.50
2023-03-11T20:28:39.506Z,2.42
2023-03-11T20:31:18.605Z,2.50
2023-03-11T20:33:45.954Z,2.57
2023-03-11T20:36:15.836Z,2.54
2023-03-11T20:38:42.793Z,2.60
2023-03-11T20:41:10.227Z,2.60
2023-03-11T20:43:38.097Z,2.60
2023-03-11T20:46:05.934Z,2.64
2023-03-11T20:48:32.890Z,2.60
2023-03-11T20:51:01.557Z,2.56
2023-03-11T20:53:30.611Z,2.75
2023-03-11T20:55:58.542Z,2.68
2023-03-11T20:58:25.578Z,2.81
2023-03-11T21:00:52.565Z,2.86
2023-03-11T21:03:19.555Z,2.77
2023-03-11T21:05:46.610Z,2.76
2023-03-11T21:08:13.577Z,2.70
2023-03-11T21:10:40.582Z,2.56
2023-03-11T21:13:07.713Z,2.59
2023-03-11T21:15:37.165Z,2.63
2023-03-11T21:18:04.302Z,2.67
2023-03-11T21:20:31.151Z,2.67
2023-03-11T21:22:58.134Z,2.61
2023-03-11T21:25:24.983Z,2.59
2023-03-11T21:27:51.862Z,2.64
2023-03-11T21:30:18.812Z,2.60
2023-03-11T21:32:46.291Z,2.68
2023-03-11T21:35:13.449Z,2.73
2023-03-11T21:37:40.380Z,2.72
2023-03-11T21:40:08.048Z,2.88
2023-03-11T21:42:34.916Z,2.88
2023-03-11T21:45:02.526Z,2.74
2023-03-11T21:47:29.947Z,2.75
2023-03-11T21:49:57.225Z,2.79
2023-03-11T21:52:24.287Z,2.66
2023-03-11T21:54:51.074Z,2.75
2023-03-11T21:57:18.027Z,2.70
2023-03-11T21:59:45.177Z,2.78
2023-03-11T22:02:15.249Z,2.70
2023-03-11T22:04:43.004Z,2.78
2023-03-11T22:07:10.658Z,2.76
2023-03-11T22:09:37.619Z,2.87
2023-03-11T22:12:04.912Z,2.91
2023-03-11T22:14:32.177Z,2.82
2023-03-11T22:16:59.143Z,2.87
2023-03-11T22:19:26.147Z,2.81
2023-03-11T22:21:53.041Z,2.86
2023-03-11T22:24:20.376Z,2.89
2023-03-11T22:26:47.537Z,2.85
2023-03-11T22:29:15.566Z,2.84
2023-03-11T22:31:42.901Z,2.89
2023-03-11T22:34:10.224Z,2.94
2023-03-11T22:36:37.587Z,2.93
2023-03-11T22:39:05.343Z,2.79
2023-03-11T22:41:33.232Z,2.60
2023-03-11T22:44:00.723Z,2.36
2023-03-11T22:46:27.996Z,2.21
2023-03-11T22:48:54.960Z,2.19
2023-03-11T22:51:21.984Z,2.24
2023-03-11T22:53:49.075Z,2.08
2023-03-11T22:56:17.244Z,1.91
2023-03-11T22:58:44.729Z,1.98
2023-03-11T23:01:11.902Z,2.00
2023-03-11T23:03:39.256Z,1.89
2023-03-11T23:06:07.955Z,1.84
2023-03-11T23:08:35.245Z,1.96
2023-03-11T23:11:12.165Z,1.84
2023-03-11T23:13:40.240Z,1.94
2023-03-11T23:16:12.544Z,1.79
2023-03-11T23:18:39.529Z,1.89
2023-03-11T23:21:19.902Z,1.87
2023-03-11T23:23:47.561Z,1.85
2023-03-11T23:26:15.109Z,1.71
2023-03-11T23:28:42.439Z,1.76
2023-03-11T23:31:11.230Z,1.75
2023-03-11T23:33:38.712Z,1.79
2023-03-11T23:36:08.066Z,1.77
2023-03-11T23:38:35.616Z,1.63
2023-03-11T23:41:08.982Z,1.71
2023-03-11T23:43:36.356Z,1.67
2023-03-11T23:46:03.350Z,1.66
2023-03-11T23:48:30.338Z,1.55
2023-03-11T23:50:58.140Z,1.60
2023-03-11T23:53:26.501Z,1.75
2023-03-11T23:55:53.646Z,1.71
2023-03-11T23:58:21.503Z,1.70
